Time;durP1;ratioP1;P1;durP2;ratioP2;P2;SDS_P1;SDS_P2;PMS_P1;PMS_P2;Temp;Humidity;BMP_temperature;BMP_pressure;BME280_temperature;BME280_humidity;BME280_pressure;Samples;Min_cycle;Max_cycle;Signal;HPM_P1;HPM_P2
2023/03/05 00:01:27;;;;;;;1.88;1.15;;;;;;;4.15;85.51;102192.72;5013270;28;20030;-83
2023/03/05 00:03:54;;;;;;;1.45;1.10;;;;;;;4.06;85.12;102182.16;5013142;28;20030;-83
2023/03/05 00:06:22;;;;;;;2.33;1.00;;;;;;;4.05;85.46;102183.84;5012382;28;20038;-83
2023/03/05 00:08:48;;;;;;;0.90;0.90;;;;;;;4.04;85.24;102191.50;5024740;28;20061;-83
2023/03/05 00:11:14;;;;;;;2.57;1.13;;;;;;;4.02;85.37;102194.03;5032858;28;20055;-82
2023/03/05 00:13:39;;;;;;;1.27;1.17;;;;;;;3.96;85.04;102181.84;5032213;28;20776;-82
2023/03/05 00:16:10;;;;;;;1.25;1.00;;;;;;;3.94;85.31;102180.06;5032535;28;20033;-82
2023/03/05 00:18:36;;;;;;;0.85;0.82;;;;;;;3.92;85.43;102182.56;5033093;28;20032;-83
2023/03/05 00:21:02;;;;;;;1.95;0.90;;;;;;;3.87;85.19;102176.41;5031870;28;20477;-82
2023/03/05 00:23:27;;;;;;;1.05;0.90;;;;;;;3.84;85.14;102176.28;5032714;28;20101;-82
2023/03/05 00:25:53;;;;;;;0.80;0.80;;;;;;;3.83;85.20;102179.69;5032060;28;20108;-82
2023/03/05 00:28:18;;;;;;;1.38;0.93;;;;;;;3.85;85.33;102188.31;5032854;28;20054;-83
2023/03/05 00:30:44;;;;;;;0.90;0.90;;;;;;;3.83;85.09;102174.53;5032509;28;20045;-83
2023/03/05 00:33:11;;;;;;;1.17;0.93;;;;;;;3.84;85.64;102177.16;5032107;28;20021;-82
2023/03/05 00:35:44;;;;;;;1.83;0.93;;;;;;;3.84;85.39;102181.44;5031752;28;20100;-82
2023/03/05 00:38:11;;;;;;;1.20;1.08;;;;;;;3.84;85.08;102171.16;5032421;28;20033;-83
2023/03/05 00:40:37;;;;;;;2.30;1.08;;;;;;;3.85;85.69;102163.50;5031796;28;20080;-82
2023/03/05 00:43:03;;;;;;;0.85;0.82;;;;;;;3.85;85.75;102163.50;5032007;28;20377;-83
2023/03/05 00:45:28;;;;;;;1.00;0.90;;;;;;;3.84;85.87;102161.75;5032182;28;20031;-82
2023/03/05 00:47:53;;;;;;;1.55;0.80;;;;;;;3.84;85.42;102148.91;5031552;28;20064;-82
2023/03/05 00:50:22;;;;;;;1.25;1.13;;;;;;;3.85;85.75;102154.94;5032291;28;20380;-83
2023/03/05 00:52:47;;;;;;;2.85;0.90;;;;;;;3.86;85.44;102154.97;5031871;28;20032;-82
2023/03/05 00:55:13;;;;;;;2.83;0.80;;;;;;;3.83;85.88;102154.84;5031820;28;20025;-82
2023/03/05 00:57:38;;;;;;;1.27;1.00;;;;;;;3.81;86.00;102151.38;5032182;28;20378;-82
2023/03/05 01:00:04;;;;;;;1.23;1.00;;;;;;;3.80;85.83;102152.22;5032052;28;20060;-83
2023/03/05 01:02:30;;;;;;;1.75;1.10;;;;;;;3.79;85.74;102141.88;5030445;28;20026;-83
2023/03/05 01:04:55;;;;;;;2.50;1.20;;;;;;;3.81;85.26;102148.81;5031824;28;20485;-82
2023/03/05 01:07:20;;;;;;;2.90;1.13;;;;;;;3.84;85.67;102150.59;5033678;28;20021;-83
2023/03/05 01:09:46;;;;;;;2.35;1.27;;;;;;;3.79;85.54;102136.72;5035012;28;20028;-82
2023/03/05 01:12:11;;;;;;;3.85;1.27;;;;;;;3.85;85.54;102142.94;5035948;28;20087;-83
2023/03/05 01:14:36;;;;;;;2.45;1.30;;;;;;;3.78;85.54;102124.72;5036075;28;20033;-83
2023/03/05 01:17:02;;;;;;;1.65;1.10;;;;;;;3.85;85.68;102135.25;5034675;28;20466;-82
2023/03/05 01:19:27;;;;;;;2.30;1.27;;;;;;;3.83;85.79;102131.75;5035888;28;20025;-82
2023/03/05 01:21:53;;;;;;;1.35;1.25;;;;;;;3.81;86.10;102120.56;5035374;28;20363;-82
2023/03/05 01:24:19;;;;;;;1.53;1.00;;;;;;;3.82;85.74;102127.47;5034976;28;20484;-83
2023/03/05 01:26:44;;;;;;;2.13;1.17;;;;;;;3.82;85.79;102118.84;5025655;28;20026;-83
2023/03/05 01:29:10;;;;;;;1.15;1.05;;;;;;;3.78;85.93;102115.31;5015037;28;20018;-82
2023/03/05 01:31:35;;;;;;;1.10;1.00;;;;;;;3.76;86.11;102109.25;5015968;28;20022;-82
2023/03/05 01:34:00;;;;;;;2.13;1.10;;;;;;;3.78;86.36;102109.28;5015465;28;20022;-83
2023/03/05 01:36:26;;;;;;;1.48;0.95;;;;;;;3.76;85.90;102098.97;5015004;28;20390;-82
2023/03/05 01:38:51;;;;;;;1.15;1.05;;;;;;;3.73;86.61;102106.59;5015596;28;20378;-83
2023/03/05 01:41:18;;;;;;;1.10;0.82;;;;;;;3.70;86.90;102103.94;5015927;28;20061;-82
2023/03/05 01:43:45;;;;;;;1.52;1.00;;;;;;;3.67;86.55;102103.81;5015216;28;20163;-83
2023/03/05 01:46:22;;;;;;;0.70;0.70;;;;;;;3.67;86.72;102093.56;5015797;28;20076;-83
2023/03/05 01:49:01;;;;;;;1.35;0.90;;;;;;;3.66;86.59;102091.81;5015141;28;20034;-83
2023/03/05 01:51:30;;;;;;;0.90;0.85;;;;;;;3.66;86.39;102090.09;5014876;28;20093;-82
2023/03/05 01:53:58;;;;;;;1.33;0.90;;;;;;;3.66;86.46;102082.38;5014716;28;20128;-82
2023/03/05 01:56:25;;;;;;;0.88;0.70;;;;;;;3.65;86.64;102085.81;5015292;28;20040;-83
2023/03/05 01:58:51;;;;;;;1.48;0.90;;;;;;;3.63;86.71;102076.28;5014147;28;20057;-82
2023/03/05 02:01:17;;;;;;;1.85;0.90;;;;;;;3.62;86.83;102078.00;5015345;28;20022;-82
2023/03/05 02:03:43;;;;;;;2.92;1.17;;;;;;;3.64;86.77;102070.34;5015177;28;20025;-82
2023/03/05 02:06:08;;;;;;;1.95;1.00;;;;;;;3.64;86.95;102067.75;5013840;28;20410;-82
2023/03/05 02:08:34;;;;;;;1.58;0.98;;;;;;;3.64;86.95;102060.06;5015110;28;20105;-82
2023/03/05 02:11:00;;;;;;;3.28;1.20;;;;;;;3.66;86.52;102054.16;5014746;28;20033;-82
2023/03/05 02:13:30;;;;;;;1.33;1.05;;;;;;;3.66;86.86;102046.44;5014339;28;20026;-82
2023/03/05 02:15:58;;;;;;;1.30;1.17;;;;;;;3.67;86.80;102044.78;5014759;28;20026;-83
2023/03/05 02:18:27;;;;;;;1.20;1.10;;;;;;;3.66;86.62;102045.59;5013200;28;20076;-82
2023/03/05 02:20:55;;;;;;;1.48;1.20;;;;;;;3.66;86.86;102049.00;5014732;28;20101;-83
2023/03/05 02:23:23;;;;;;;0.98;0.90;;;;;;;3.65;86.77;102042.16;5015105;28;20040;-82
2023/03/05 02:25:49;;;;;;;1.92;1.20;;;;;;;3.64;86.69;102031.81;5013574;28;20033;-82
2023/03/05 02:28:24;;;;;;;1.52;1.02;;;;;;;3.66;86.66;102036.19;5015433;28;20021;-82
2023/03/05 02:30:50;;;;;;;2.13;1.10;;;;;;;3.65;87.03;102026.75;5014182;28;20032;-82
2023/03/05 02:33:16;;;;;;;0.85;0.85;;;;;;;3.64;86.67;102025.00;5013604;28;20030;-82
2023/03/05 02:35:42;;;;;;;1.50;0.98;;;;;;;3.64;87.06;102025.00;5014786;28;20026;-82
2023/03/05 02:38:08;;;;;;;1.08;1.00;;;;;;;3.62;86.99;102023.19;5014402;28;20037;-82
2023/03/05 02:40:34;;;;;;;1.27;0.90;;;;;;;3.65;87.01;102020.72;5013972;28;20026;-82
2023/03/05 02:42:59;;;;;;;1.37;1.13;;;;;;;3.64;86.95;102029.25;5014191;28;20076;-82
2023/03/05 02:45:25;;;;;;;1.42;1.15;;;;;;;3.58;86.78;102005.97;5014432;28;20026;-83
2023/03/05 02:47:50;;;;;;;1.42;0.95;;;;;;;3.62;87.14;102016.38;5013583;28;20026;-82
2023/03/05 02:50:15;;;;;;;2.13;1.13;;;;;;;3.58;87.23;102005.97;5014356;28;20065;-82
2023/03/05 02:52:41;;;;;;;1.60;0.80;;;;;;;3.60;87.05;102010.31;5014129;28;20084;-83
2023/03/05 02:55:10;;;;;;;1.10;1.00;;;;;;;3.58;87.05;102011.09;5013065;28;20030;-82
2023/03/05 02:57:35;;;;;;;1.65;0.93;;;;;;;3.53;87.54;102004.13;5015259;28;20049;-83
2023/03/05 03:00:00;;;;;;;1.27;1.00;;;;;;;3.55;87.15;101999.91;5014217;28;20072;-83
2023/03/05 03:02:28;;;;;;;1.10;0.80;;;;;;;3.54;87.26;101998.16;5013658;28;20034;-83
2023/03/05 03:04:53;;;;;;;1.33;0.90;;;;;;;3.52;87.29;101997.22;5013740;28;20018;-82
2023/03/05 03:07:19;;;;;;;0.80;0.80;;;;;;;3.47;87.89;101991.09;5013949;28;20470;-82
2023/03/05 03:09:44;;;;;;;1.15;0.60;;;;;;;3.39;87.58;101984.81;5012752;28;20034;-82
2023/03/05 03:12:10;;;;;;;0.80;0.68;;;;;;;3.40;87.76;101989.13;5013536;28;20049;-82
2023/03/05 03:14:38;;;;;;;0.50;0.50;;;;;;;3.36;87.52;101977.91;5013273;28;20493;-82
2023/03/05 03:17:15;;;;;;;0.75;0.52;;;;;;;3.30;87.94;101972.56;5013750;28;20109;-83
2023/03/05 03:19:42;;;;;;;0.80;0.80;;;;;;;3.22;88.03;101964.63;5013927;28;20030;-83
2023/03/05 03:22:09;;;;;;;1.25;0.90;;;;;;;3.18;88.44;101965.31;5012805;28;20037;-82
2023/03/05 03:24:36;;;;;;;1.75;0.85;;;;;;;3.13;88.00;101966.00;5013911;28;20447;-83
2023/03/05 03:27:02;;;;;;;2.67;1.02;;;;;;;3.08;87.88;101958.16;5013342;28;20022;-83
2023/03/05 03:29:27;;;;;;;1.80;1.10;;;;;;;3.03;88.00;101950.31;5013223;28;20045;-82
2023/03/05 03:31:58;;;;;;;2.75;1.00;;;;;;;3.02;88.09;101950.25;5013501;28;20058;-82
2023/03/05 03:34:23;;;;;;;1.17;1.02;;;;;;;2.98;87.98;101944.16;5013598;28;20033;-82
2023/03/05 03:36:49;;;;;;;0.95;0.88;;;;;;;3.01;88.80;101948.50;5012543;28;20083;-82
2023/03/05 03:39:16;;;;;;;1.88;1.05;;;;;;;2.96;88.27;101938.09;5013724;28;20049;-82
2023/03/05 03:41:43;;;;;;;0.93;0.55;;;;;;;2.99;87.99;101937.31;5013224;28;20030;-82
2023/03/05 03:44:09;;;;;;;2.20;1.17;;;;;;;2.96;88.33;101938.09;5012509;28;20021;-82
2023/03/05 03:46:35;;;;;;;1.75;0.98;;;;;;;2.92;88.47;101928.56;5013466;28;20021;-82
2023/03/05 03:49:01;;;;;;;1.40;1.00;;;;;;;2.94;88.74;101948.28;5012935;28;20029;-83
2023/03/05 03:51:26;;;;;;;1.10;1.00;;;;;;;2.93;88.53;101943.97;5012625;28;20354;-82
2023/03/05 03:53:52;;;;;;;1.50;1.20;;;;;;;2.91;89.10;101932.81;5013003;28;20121;-82
2023/03/05 03:56:17;;;;;;;1.02;0.98;;;;;;;2.92;88.75;101926.88;5013221;28;20107;-82
2023/03/05 03:58:43;;;;;;;2.33;1.25;;;;;;;2.89;89.23;101937.03;5012554;28;20470;-82
2023/03/05 04:01:08;;;;;;;1.30;1.20;;;;;;;2.93;89.78;101940.56;5020969;28;20039;-83
2023/03/05 04:03:33;;;;;;;1.98;1.30;;;;;;;2.90;89.33;101925.94;5032626;28;20052;-83
2023/03/05 04:06:02;;;;;;;1.65;1.20;;;;;;;2.89;89.39;101925.88;5031679;28;20048;-82
2023/03/05 04:08:27;;;;;;;1.23;1.00;;;;;;;2.89;89.54;101929.31;5032727;28;20040;-82
2023/03/05 04:10:52;;;;;;;3.13;1.23;;;;;;;2.87;90.24;101924.97;5031554;28;20124;-82
2023/03/05 04:13:18;;;;;;;3.40;1.50;;;;;;;2.87;90.02;101915.56;5032908;28;20053;-83
2023/03/05 04:15:43;;;;;;;2.63;1.38;;;;;;;2.85;90.35;101927.47;5032754;28;20029;-82
2023/03/05 04:18:10;;;;;;;1.95;1.55;;;;;;;2.77;89.80;101914.38;5013694;28;20037;-82
2023/03/05 04:20:35;;;;;;;2.33;1.50;;;;;;;2.83;89.94;101918.00;5012948;28;20026;-82
2023/03/05 04:23:00;;;;;;;1.42;1.33;;;;;;;2.80;90.29;101905.94;5012552;28;20036;-82
2023/03/05 04:25:25;;;;;;;1.50;1.40;;;;;;;2.83;89.33;101908.59;5011685;28;20109;-82
2023/03/05 04:27:54;;;;;;;2.03;1.23;;;;;;;2.81;89.78;101893.97;5012331;28;20030;-82
2023/03/05 04:30:19;;;;;;;1.80;1.30;;;;;;;2.88;89.60;101908.75;5008330;28;20064;-82
2023/03/05 04:32:45;;;;;;;1.27;1.17;;;;;;;2.79;89.53;101881.13;5011632;28;20054;-82
2023/03/05 04:35:10;;;;;;;1.00;0.98;;;;;;;2.83;89.53;101888.06;5012869;28;20105;-82
2023/03/05 04:37:35;;;;;;;1.10;1.10;;;;;;;2.78;90.03;101875.09;5012654;28;20030;-83
2023/03/05 04:40:04;;;;;;;1.48;1.30;;;;;;;2.81;89.75;101882.06;5011895;28;20025;-83
2023/03/05 04:42:29;;;;;;;1.85;1.13;;;;;;;2.85;89.64;101896.69;5014655;28;20057;-82
2023/03/05 04:44:54;;;;;;;1.50;1.20;;;;;;;2.85;89.61;101890.72;5025127;28;20057;-82
2023/03/05 04:47:23;;;;;;;1.58;1.20;;;;;;;2.88;89.38;101895.94;5035793;28;20036;-83
2023/03/05 04:49:48;;;;;;;1.55;1.30;;;;;;;2.88;89.40;101890.78;5036093;28;20029;-82
2023/03/05 04:52:14;;;;;;;1.05;1.00;;;;;;;2.87;89.35;101886.53;5036186;28;20029;-82
2023/03/05 04:54:39;;;;;;;3.47;1.38;;;;;;;2.87;90.03;101886.53;5035737;28;20033;-83
2023/03/05 04:57:05;;;;;;;4.60;1.58;;;;;;;2.84;89.87;101879.56;5036251;28;20082;-82
2023/03/05 04:59:31;;;;;;;1.70;1.60;;;;;;;2.77;89.86;101870.81;5035841;28;20028;-82
2023/03/05 05:01:56;;;;;;;1.80;1.50;;;;;;;2.80;90.00;101876.84;5035230;28;20029;-83
2023/03/05 05:04:21;;;;;;;3.15;1.30;;;;;;;2.82;90.03;101880.34;5035826;28;20032;-82
2023/03/05 05:06:47;;;;;;;1.38;1.27;;;;;;;2.81;89.75;101874.38;5035001;28;20056;-82
2023/03/05 05:09:13;;;;;;;1.50;1.40;;;;;;;2.82;89.97;101867.53;5032274;28;20048;-82
2023/03/05 05:11:39;;;;;;;3.63;1.88;;;;;;;2.80;90.08;101866.59;5035552;28;20068;-82
2023/03/05 05:14:07;;;;;;;3.92;2.10;;;;;;;2.73;90.39;101861.28;5035730;28;20061;-82
2023/03/05 05:16:32;;;;;;;2.63;1.88;;;;;;;2.75;90.29;101863.88;5035916;28;20035;-83
2023/03/05 05:18:57;;;;;;;4.25;1.98;;;;;;;2.77;89.89;101865.66;5035698;28;20025;-82
2023/03/05 05:21:23;;;;;;;2.10;1.75;;;;;;;2.76;90.40;101860.50;5035161;28;20096;-82
2023/03/05 05:23:48;;;;;;;4.40;2.10;;;;;;;2.76;90.65;101861.38;5035366;28;20021;-83
2023/03/05 05:26:14;;;;;;;3.45;1.70;;;;;;;2.78;90.36;101856.31;5035902;28;20032;-83
2023/03/05 05:28:42;;;;;;;2.33;1.50;;;;;;;2.80;90.44;101864.03;5035069;28;20057;-82
2023/03/05 05:31:09;;;;;;;2.25;2.00;;;;;;;2.78;90.33;101857.16;5035304;28;20033;-83
2023/03/05 05:33:34;;;;;;;;;;;;;;;2.78;90.94;101857.16;5035947;28;20064;-83
2023/03/05 05:36:02;;;;;;;2.97;1.93;;;;;;;2.78;90.69;101858.88;5034264;28;19956;-83
2023/03/05 05:38:27;;;;;;;2.67;2.05;;;;;;;2.77;90.72;101857.97;5035265;28;20113;-83
2023/03/05 05:41:00;;;;;;;4.00;2.30;;;;;;;2.76;90.57;101857.94;5034881;28;20124;-83
2023/03/05 05:43:26;;;;;;;3.28;2.17;;;;;;;2.75;90.62;101851.97;5034853;28;20072;-82
2023/03/05 05:45:51;;;;;;;3.67;2.30;;;;;;;2.75;90.94;101848.50;5034889;28;20421;-82
2023/03/05 05:48:16;;;;;;;3.40;2.13;;;;;;;2.76;91.47;101845.13;5034926;28;20044;-82
2023/03/05 05:50:41;;;;;;;3.45;2.28;;;;;;;2.76;91.38;101850.25;5033484;28;20041;-83
2023/03/05 05:53:07;;;;;;;4.13;2.47;;;;;;;2.70;91.46;101832.13;5033767;28;20492;-83
2023/03/05 05:55:32;;;;;;;4.72;2.83;;;;;;;2.72;91.58;101839.03;5034878;28;20030;-82
2023/03/05 05:57:57;;;;;;;6.30;3.00;;;;;;;2.69;91.61;101831.22;5033900;28;20018;-83
2023/03/05 06:00:23;;;;;;;6.60;2.78;;;;;;;2.70;91.50;101835.53;5035197;28;20025;-82
2023/03/05 06:02:48;;;;;;;3.08;2.33;;;;;;;2.69;90.80;101831.22;5034723;28;20059;-82
2023/03/05 06:05:14;;;;;;;2.78;2.00;;;;;;;2.63;91.32;101821.66;5034032;28;20048;-82
2023/03/05 06:07:42;;;;;;;3.60;2.25;;;;;;;2.69;91.56;101827.81;5034740;28;20045;-82
2023/03/05 06:10:08;;;;;;;3.25;2.10;;;;;;;2.71;91.96;101827.03;5034355;28;20033;-82
2023/03/05 06:12:34;;;;;;;3.72;2.22;;;;;;;2.71;91.18;101832.16;5034042;28;20053;-83
2023/03/05 06:14:59;;;;;;;4.57;2.42;;;;;;;2.69;91.92;101825.25;5034485;28;20056;-82
2023/03/05 06:17:24;;;;;;;4.00;2.50;;;;;;;2.69;91.89;101827.81;5034153;28;20025;-82
2023/03/05 06:19:54;;;;;;;3.75;2.20;;;;;;;2.68;91.66;101826.91;5034117;28;20026;-82
2023/03/05 06:22:19;;;;;;;3.15;2.30;;;;;;;2.69;91.49;101826.09;5034686;28;20017;-82
2023/03/05 06:24:44;;;;;;;3.42;2.28;;;;;;;2.72;91.88;101830.44;5033548;28;20084;-82
2023/03/05 06:27:09;;;;;;;3.08;2.00;;;;;;;2.69;91.83;101823.53;5034322;28;20017;-82
2023/03/05 06:29:35;;;;;;;2.13;1.95;;;;;;;2.70;91.98;101824.44;5034414;28;20034;-83
2023/03/05 06:32:00;;;;;;;2.25;1.77;;;;;;;2.71;92.38;101827.03;5033125;28;20029;-82
2023/03/05 06:34:25;;;;;;;2.67;1.90;;;;;;;2.67;92.13;101820.03;5034330;28;20017;-82
2023/03/05 06:36:51;;;;;;;2.47;1.85;;;;;;;2.73;92.63;101827.97;5033970;28;20510;-82
2023/03/05 06:39:16;;;;;;;3.85;1.92;;;;;;;2.74;92.02;101833.94;5033198;28;20107;-83
2023/03/05 06:41:44;;;;;;;2.13;1.80;;;;;;;2.75;92.11;101823.75;5034042;28;20123;-83
2023/03/05 06:44:09;;;;;;;1.80;1.70;;;;;;;2.75;91.70;101818.63;5033799;28;20029;-83
2023/03/05 06:46:38;;;;;;;1.63;1.52;;;;;;;2.80;92.27;101829.03;5033604;28;20021;-83
2023/03/05 06:49:04;;;;;;;2.13;1.75;;;;;;;2.82;92.29;101821.38;5033719;28;20478;-83
2023/03/05 06:51:33;;;;;;;3.30;1.77;;;;;;;2.78;92.64;101818.72;5034448;28;20035;-83
2023/03/05 06:54:04;;;;;;;1.38;1.27;;;;;;;2.83;92.58;101830.81;5033301;28;20030;-82
2023/03/05 06:56:35;;;;;;;1.73;1.60;;;;;;;2.83;93.14;101821.41;5033700;28;20478;-83
2023/03/05 06:59:02;;;;;;;2.60;1.88;;;;;;;2.83;93.15;101829.09;5033422;28;20038;-82
2023/03/05 07:01:28;;;;;;;2.00;1.80;;;;;;;2.86;92.30;101821.53;5033158;28;20029;-83
2023/03/05 07:03:54;;;;;;;1.90;1.80;;;;;;;2.89;92.50;101828.44;5024711;28;20030;-82
2023/03/05 07:06:20;;;;;;;2.03;1.87;;;;;;;2.90;92.68;101820.81;5013357;28;20038;-83
2023/03/05 07:08:46;;;;;;;1.90;1.80;;;;;;;2.94;92.85;101824.34;5013305;28;20316;-83
2023/03/05 07:11:15;;;;;;;2.28;1.80;;;;;;;2.97;93.85;101823.56;5013843;28;20068;-83
2023/03/05 07:13:42;;;;;;;2.10;1.88;;;;;;;2.96;93.87;101817.56;5032414;28;20021;-83
2023/03/05 07:16:08;;;;;;;;;;;;;;;3.00;93.85;101816.81;5033727;28;20056;-84
2023/03/05 07:18:34;;;;;;;2.60;1.98;;;;;;;3.02;93.52;101822.88;5033476;28;20400;-83
2023/03/05 07:21:04;;;;;;;1.92;1.75;;;;;;;3.07;93.88;101828.16;5032241;28;20030;-83
2023/03/05 07:23:29;;;;;;;2.25;1.80;;;;;;;3.08;94.46;101822.19;5033555;28;20076;-83
2023/03/05 07:25:55;;;;;;;3.45;1.95;;;;;;;3.09;94.36;101811.13;5033172;28;20021;-83
2023/03/05 07:28:20;;;;;;;2.67;2.00;;;;;;;3.10;94.25;101807.75;5032550;28;20021;-84
2023/03/05 07:30:57;;;;;;;3.17;2.10;;;;;;;3.14;93.72;101808.69;5033020;28;20091;-83
2023/03/05 07:33:23;;;;;;;2.15;1.83;;;;;;;3.19;94.44;101807.16;5033517;28;20014;-83
2023/03/05 07:35:48;;;;;;;2.53;2.05;;;;;;;3.19;94.71;101808.00;5032546;28;20032;-83
2023/03/05 07:38:13;;;;;;;2.17;1.98;;;;;;;3.22;94.60;101807.22;5032988;28;20112;-82
2023/03/05 07:40:39;;;;;;;2.20;2.00;;;;;;;3.25;94.56;101809.91;5021468;28;20037;-83
2023/03/05 07:43:04;;;;;;;3.35;1.85;;;;;;;3.28;94.60;101810.00;5012143;28;20048;-83
2023/03/05 07:45:29;;;;;;;1.60;1.50;;;;;;;3.34;94.47;101807.59;5013827;28;20527;-83
2023/03/05 07:47:55;;;;;;;1.90;1.70;;;;;;;3.39;94.38;101805.19;5012926;28;20025;-82
2023/03/05 07:50:21;;;;;;;1.88;1.60;;;;;;;3.45;94.82;101812.19;5012820;28;20514;-83
2023/03/05 07:52:46;;;;;;;1.90;1.63;;;;;;;3.48;95.14;101805.47;5014263;28;20394;-83
2023/03/05 07:55:11;;;;;;;1.98;1.77;;;;;;;3.52;93.91;101811.56;5013552;28;20382;-83
2023/03/05 07:57:37;;;;;;;2.40;1.70;;;;;;;3.56;94.26;101808.25;5012540;28;20120;-83
2023/03/05 08:00:04;;;;;;;2.03;1.83;;;;;;;3.61;94.65;101806.69;5013192;28;20100;-82
2023/03/05 08:02:30;;;;;;;;;;;;;;;3.68;94.17;101797.47;5020714;28;20381;-80
2023/03/05 08:04:55;;;;;;;3.93;1.90;;;;;;;3.73;94.70;101793.31;5031941;28;19917;-82
2023/03/05 08:07:20;;;;;;;1.80;1.70;;;;;;;3.78;95.02;101796.91;5031796;28;20026;-81
2023/03/05 08:09:45;;;;;;;3.08;2.20;;;;;;;3.82;94.99;101791.03;5032434;28;20025;-81
2023/03/05 08:12:14;;;;;;;5.18;2.50;;;;;;;3.82;95.21;101796.16;5020286;28;20025;-81
2023/03/05 08:14:39;;;;;;;4.25;2.40;;;;;;;3.73;94.58;101785.63;5031829;28;20063;-81
2023/03/05 08:17:05;;;;;;;5.88;2.38;;;;;;;3.78;94.64;101790.88;5021558;28;20033;-80
2023/03/05 08:19:31;;;;;;;4.40;2.57;;;;;;;3.76;94.85;101785.72;5023955;28;20026;-83
2023/03/05 08:21:57;;;;;;;4.43;2.42;;;;;;;3.80;95.04;101789.22;5021534;28;20037;-83
2023/03/05 08:24:28;;;;;;;4.03;2.28;;;;;;;3.82;94.46;101785.00;5026825;28;20079;-80
2023/03/05 08:26:54;;;;;;;3.15;2.30;;;;;;;3.87;94.95;101783.47;5032140;28;20026;-80
2023/03/05 08:29:19;;;;;;;2.77;2.10;;;;;;;3.90;95.22;101774.97;5032016;28;20121;-80
2023/03/05 08:31:46;;;;;;;5.95;2.53;;;;;;;3.93;94.52;101781.03;5030756;28;20116;-79
2023/03/05 08:34:11;;;;;;;2.65;2.20;;;;;;;3.92;94.44;101771.59;5020465;28;20034;-80
2023/03/05 08:36:36;;;;;;;2.40;2.17;;;;;;;4.02;95.31;101765.88;5019007;28;20526;-81
2023/03/05 08:39:02;;;;;;;2.95;2.25;;;;;;;4.11;94.83;101761.84;5019508;28;20029;-81
2023/03/05 08:41:28;;;;;;;3.60;2.20;;;;;;;4.18;94.80;101763.72;5032175;28;20060;-80
2023/03/05 08:43:53;;;;;;;3.83;2.47;;;;;;;4.23;93.49;101764.69;5031328;28;20022;-80
2023/03/05 08:46:19;;;;;;;3.88;2.30;;;;;;;4.28;93.48;101768.25;5030715;28;20116;-80
2023/03/05 08:48:44;;;;;;;2.20;2.00;;;;;;;4.36;93.87;101760.75;5031862;28;20018;-80
2023/03/05 08:51:13;;;;;;;3.28;2.10;;;;;;;4.38;94.14;101748.81;5031638;28;20060;-80
2023/03/05 08:53:39;;;;;;;1.98;1.80;;;;;;;4.51;94.12;101752.53;5031443;28;20018;-80
2023/03/05 08:56:05;;;;;;;2.55;2.03;;;;;;;4.60;93.23;101759.63;5031497;28;20462;-81
2023/03/05 08:58:30;;;;;;;2.95;1.67;;;;;;;4.67;92.71;101755.50;5031763;28;20104;-80
2023/03/05 09:00:59;;;;;;;1.88;1.75;;;;;;;4.70;92.60;101741.00;5027762;28;20112;-80
2023/03/05 09:03:24;;;;;;;3.00;2.00;;;;;;;4.71;91.56;101745.31;5015784;28;20026;-80
2023/03/05 09:05:50;;;;;;;3.95;2.17;;;;;;;4.72;91.79;101744.50;5031583;28;20481;-80
2023/03/05 09:08:16;;;;;;;2.50;1.98;;;;;;;4.76;91.10;101742.84;5031344;28;20030;-80
2023/03/05 09:10:45;;;;;;;2.65;1.95;;;;;;;4.74;91.30;101742.78;5031676;28;20403;-80
2023/03/05 09:13:11;;;;;;;2.70;2.13;;;;;;;4.76;91.39;101743.72;5031862;28;20049;-80
2023/03/05 09:15:36;;;;;;;2.83;2.25;;;;;;;4.71;91.30;101734.16;5025543;28;20455;-80
2023/03/05 09:18:02;;;;;;;1.83;1.67;;;;;;;4.73;91.83;101735.06;5014596;28;20036;-80
2023/03/05 09:20:27;;;;;;;2.63;1.90;;;;;;;4.75;91.13;101734.25;5021557;28;20033;-80
2023/03/05 09:22:53;;;;;;;2.67;1.70;;;;;;;4.87;91.63;101732.78;5030548;28;20026;-80
2023/03/05 09:25:18;;;;;;;1.93;1.73;;;;;;;5.04;91.96;101731.47;5031598;28;20029;-80
2023/03/05 09:27:44;;;;;;;1.75;1.40;;;;;;;5.16;91.68;101727.44;5031874;28;20098;-80
2023/03/05 09:30:11;;;;;;;2.42;2.20;;;;;;;5.21;90.22;101723.22;5034896;28;20030;-80
2023/03/05 09:32:36;;;;;;;4.80;1.70;;;;;;;5.23;90.11;101717.31;5018624;28;20389;-80
2023/03/05 09:35:01;;;;;;;3.22;1.67;;;;;;;5.26;89.13;101719.06;5014526;28;20029;-80
2023/03/05 09:37:28;;;;;;;2.30;1.85;;;;;;;5.30;88.87;101717.41;5014778;28;20046;-80
2023/03/05 09:39:54;;;;;;;2.13;1.70;;;;;;;5.34;88.20;101714.94;5014905;28;20030;-80
2023/03/05 09:42:43;;;;;;;1.98;1.50;;;;;;;5.36;88.31;101714.97;5014727;28;20045;-80
2023/03/05 09:45:25;;;;;;;2.15;1.50;;;;;;;5.46;87.78;101716.03;5014971;28;20029;-80
2023/03/05 09:48:17;;;;;;;2.05;1.55;;;;;;;5.50;87.73;101707.53;5014935;28;20022;-80
2023/03/05 09:50:47;;;;;;;1.60;1.50;;;;;;;5.52;87.40;101704.13;5020878;28;20086;-80
2023/03/05 09:53:22;;;;;;;1.40;1.30;;;;;;;5.47;85.50;101700.59;5035014;28;20057;-78
2023/03/05 09:55:55;;;;;;;1.67;1.58;;;;;;;5.39;84.03;101705.63;5033715;28;20501;-80
2023/03/05 09:58:32;;;;;;;1.92;1.50;;;;;;;5.34;85.47;101704.63;5026703;28;20022;-81
2023/03/05 10:01:09;;;;;;;1.83;1.35;;;;;;;5.36;85.41;101705.53;5016031;28;20045;-81
2023/03/05 10:03:58;;;;;;;1.38;1.27;;;;;;;5.38;85.67;101703.00;5014459;28;20018;-81
2023/03/05 10:06:46;;;;;;;2.70;1.42;;;;;;;5.39;85.47;101707.31;5022084;28;20504;-81
2023/03/05 10:09:44;;;;;;;1.98;1.30;;;;;;;5.38;86.02;101703.00;5014804;28;20037;-81
2023/03/05 10:12:14;;;;;;;1.50;1.40;;;;;;;5.37;85.96;101699.56;5019217;28;20025;-81
2023/03/05 10:14:40;;;;;;;1.58;1.45;;;;;;;5.44;86.13;101697.09;5032526;28;20027;-81
2023/03/05 10:17:30;;;;;;;1.55;1.25;;;;;;;5.49;85.50;101691.19;5031854;28;20033;-81
2023/03/05 10:20:14;;;;;;;1.60;1.38;;;;;;;5.56;86.31;101692.19;5025992;28;20037;-81
2023/03/05 10:23:00;;;;;;;1.27;1.17;;;;;;;5.68;85.48;101689.00;5034485;28;20044;-81
2023/03/05 10:25:38;;;;;;;;;;;;;;;5.70;83.16;101683.03;5034341;28;20450;-81
2023/03/05 10:28:16;;;;;;;3.13;1.60;;;;;;;5.68;84.02;101681.25;5032590;28;19913;-80
2023/03/05 10:31:02;;;;;;;2.22;1.30;;;;;;;5.69;82.91;101678.72;5033794;28;20025;-81
2023/03/05 10:33:42;;;;;;;1.20;1.10;;;;;;;5.77;84.50;101675.41;5034409;28;20067;-81
2023/03/05 10:36:18;;;;;;;1.70;1.17;;;;;;;5.80;84.26;101670.31;5032444;28;20073;-81
2023/03/05 10:38:58;;;;;;;1.10;1.02;;;;;;;5.78;83.96;101672.88;5022045;28;20030;-81
2023/03/05 10:41:53;;;;;;;1.10;1.10;;;;;;;5.72;84.02;101668.47;5024439;28;20060;-81
2023/03/05 10:44:53;;;;;;;1.33;1.23;;;;;;;5.60;84.96;101667.34;5016573;28;20473;-81
2023/03/05 10:47:27;;;;;;;2.90;1.40;;;;;;;5.47;85.96;101664.53;5013206;28;20117;-81
2023/03/05 10:49:54;;;;;;;2.83;1.55;;;;;;;5.35;86.24;101672.91;5014003;28;20033;-80
2023/03/05 10:52:33;;;;;;;3.58;1.67;;;;;;;5.24;86.88;101662.41;5014850;28;20038;-81
2023/03/05 10:54:59;;;;;;;4.65;1.75;;;;;;;5.06;86.18;101660.34;5018998;28;20056;-80
2023/03/05 10:57:26;;;;;;;2.80;1.60;;;;;;;5.01;87.35;101659.38;5019215;28;20473;-80
2023/03/05 10:59:57;;;;;;;4.03;1.80;;;;;;;5.09;88.19;101662.97;5032993;28;20021;-81
2023/03/05 11:02:23;;;;;;;2.67;1.70;;;;;;;5.08;87.79;101653.50;5033090;28;20025;-81
2023/03/05 11:04:51;;;;;;;2.55;1.60;;;;;;;5.15;87.68;101645.91;5033327;28;20056;-81
2023/03/05 11:07:16;;;;;;;1.58;1.48;;;;;;;5.34;88.35;101647.16;5032941;28;20043;-81
2023/03/05 11:09:42;;;;;;;2.27;1.60;;;;;;;5.53;84.93;101632.91;5033185;28;20525;-81
2023/03/05 11:12:18;;;;;;;1.60;1.25;;;;;;;5.70;86.15;101638.34;5030561;28;20429;-81
2023/03/05 11:15:09;;;;;;;1.58;1.45;;;;;;;5.95;85.19;101634.50;5013197;28;20104;-81
2023/03/05 11:17:38;;;;;;;1.48;1.30;;;;;;;6.15;83.68;101628.84;5006695;28;20030;-81
2023/03/05 11:20:25;;;;;;;1.70;1.30;;;;;;;6.29;84.25;101624.75;5012903;28;20049;-81
2023/03/05 11:23:13;;;;;;;2.17;1.48;;;;;;;6.26;78.30;101622.13;5018787;28;20048;-80
2023/03/05 11:25:55;;;;;;;2.30;1.40;;;;;;;6.09;77.20;101615.84;5012877;28;20076;-83
2023/03/05 11:28:32;;;;;;;2.63;1.60;;;;;;;6.11;77.76;101611.56;5011044;28;20026;-81
2023/03/05 11:31:06;;;;;;;2.42;1.60;;;;;;;6.08;79.81;101611.56;5011777;28;20387;-81
2023/03/05 11:33:33;;;;;;;2.00;1.23;;;;;;;6.23;81.13;101609.19;5012104;28;20029;-81
2023/03/05 11:36:23;;;;;;;1.60;1.20;;;;;;;6.44;77.94;101610.34;5010881;28;20018;-80
2023/03/05 11:38:51;;;;;;;1.60;1.17;;;;;;;6.52;78.93;101607.88;5011906;28;20065;-81